createdAt,value
2019-02-25T00:02:28.382Z,100122.34
2019-02-25T00:05:04.020Z,100135.73
2019-02-25T00:07:35.593Z,100122.70
2019-02-25T00:10:08.241Z,100124.44
2019-02-25T00:12:39.804Z,100118.47
2019-02-25T00:15:15.642Z,100124.46
2019-02-25T00:17:47.232Z,100119.72
2019-02-25T00:20:20.068Z,100125.45
2019-02-25T00:22:54.382Z,100127.67
2019-02-25T00:25:27.696Z,100123.46
2019-02-25T00:28:00.916Z,100127.44
2019-02-25T00:30:32.449Z,100129.65
2019-02-25T00:33:10.560Z,100128.83
2019-02-25T00:35:42.313Z,100124.17
2019-02-25T00:38:17.668Z,100124.97
2019-02-25T00:40:51.751Z,100128.00
2019-02-25T00:43:31.819Z,100129.00
2019-02-25T00:46:03.699Z,100129.50
2019-02-25T00:48:35.842Z,100129.54
2019-02-25T00:51:07.641Z,100134.38
2019-02-25T00:53:42.094Z,100124.43
2019-02-25T00:56:22.057Z,100113.23
2019-02-25T00:58:53.626Z,100117.65
2019-02-25T01:01:25.462Z,100121.98
2019-02-25T01:04:00.644Z,100117.36
2019-02-25T01:06:35.721Z,100113.97
2019-02-25T01:09:09.728Z,100118.68
2019-02-25T01:11:44.019Z,100120.04
2019-02-25T01:14:15.879Z,100114.05
2019-02-25T01:16:48.761Z,100111.06
2019-02-25T01:19:23.450Z,100109.42
2019-02-25T01:21:55.276Z,100103.07
2019-02-25T01:24:30.299Z,100105.27
2019-02-25T01:27:02.117Z,100101.07
2019-02-25T01:29:33.968Z,100094.64
2019-02-25T01:32:05.792Z,100099.34
2019-02-25T01:34:40.400Z,100102.50
2019-02-25T01:37:35.027Z,100104.22
2019-02-25T01:40:08.079Z,100099.06
2019-02-25T01:42:42.662Z,100088.78
2019-02-25T01:45:14.800Z,100093.98
2019-02-25T01:47:46.635Z,100093.98
2019-02-25T01:50:22.986Z,100092.31
2019-02-25T01:53:03.297Z,100091.07
2019-02-25T01:55:35.126Z,100100.08
2019-02-25T01:58:06.963Z,100096.71
2019-02-25T02:00:38.769Z,100100.15
2019-02-25T02:03:10.631Z,100097.22
2019-02-25T02:05:45.453Z,100094.22
2019-02-25T02:08:21.185Z,100098.52
2019-02-25T02:10:52.952Z,100096.38
2019-02-25T02:13:24.835Z,100098.06
2019-02-25T02:15:56.718Z,100093.30
2019-02-25T02:18:36.527Z,100095.88
2019-02-25T02:21:08.394Z,100097.17
2019-02-25T02:23:40.331Z,100092.45
2019-02-25T02:26:12.188Z,100090.80
2019-02-25T02:28:44.041Z,100098.98
2019-02-25T02:31:17.685Z,100098.55
2019-02-25T02:33:51.115Z,100090.80
2019-02-25T02:36:22.973Z,100089.52
2019-02-25T02:38:57.809Z,100088.25
2019-02-25T02:41:29.697Z,100095.59
2019-02-25T02:44:01.545Z,100093.87
2019-02-25T02:47:12.849Z,100093.91
2019-02-25T02:49:44.695Z,100090.02
2019-02-25T02:52:21.684Z,100093.42
2019-02-25T02:54:54.611Z,100097.79
2019-02-25T02:57:28.081Z,100097.79
2019-02-25T03:00:02.494Z,100094.79
2019-02-25T03:02:41.196Z,100098.21
2019-02-25T03:05:15.490Z,100102.05
2019-02-25T03:07:47.350Z,100104.61
2019-02-25T03:10:20.115Z,100109.34
2019-02-25T03:12:51.964Z,100111.45
2019-02-25T03:15:24.019Z,100111.03
2019-02-25T03:17:55.875Z,100114.48
2019-02-25T03:20:27.690Z,100114.45
2019-02-25T03:22:59.553Z,100114.47
2019-02-25T03:25:31.378Z,100113.17
2019-02-25T03:28:03.207Z,100110.63
2019-02-25T03:30:35.020Z,100108.45
2019-02-25T03:33:06.834Z,100113.58
2019-02-25T03:35:38.685Z,100114.83
2019-02-25T03:38:10.526Z,100122.95
2019-02-25T03:40:42.374Z,100119.58
2019-02-25T03:43:14.248Z,100113.59
2019-02-25T03:45:46.073Z,100125.17
2019-02-25T03:48:17.918Z,100121.31
2019-02-25T03:50:52.792Z,100119.18
2019-02-25T03:53:25.828Z,100117.00
2019-02-25T03:55:57.663Z,100120.80
2019-02-25T03:58:32.003Z,100116.92
2019-02-25T04:01:03.858Z,100117.77
2019-02-25T04:03:35.805Z,100110.92
2019-02-25T04:06:08.648Z,100113.95
2019-02-25T04:08:40.511Z,100120.83
2019-02-25T04:11:13.431Z,100123.88
2019-02-25T04:13:45.254Z,100126.86
2019-02-25T04:16:17.102Z,100124.69
2019-02-25T04:18:48.963Z,100119.01
2019-02-25T04:21:20.833Z,100121.20
2019-02-25T04:23:52.662Z,100117.78
2019-02-25T04:26:24.488Z,100110.11
2019-02-25T04:28:56.299Z,100114.03
2019-02-25T04:31:28.143Z,100109.88
2019-02-25T04:33:59.962Z,100119.27
2019-02-25T04:36:31.829Z,100126.56
2019-02-25T04:39:04.020Z,100123.12
2019-02-25T04:41:35.962Z,100135.59
2019-02-25T04:44:07.774Z,100131.71
2019-02-25T04:46:39.643Z,100123.58
2019-02-25T04:49:11.448Z,100126.61
2019-02-25T04:51:43.288Z,100130.03
2019-02-25T04:54:15.122Z,100132.15
2019-02-25T04:56:46.985Z,100128.27
2019-02-25T04:59:19.019Z,100129.16
2019-02-25T05:01:50.830Z,100122.28
2019-02-25T05:04:22.651Z,100130.85
2019-02-25T05:06:54.486Z,100123.95
2019-02-25T05:09:26.297Z,100122.24
2019-02-25T05:11:58.147Z,100129.94
2019-02-25T05:14:29.955Z,100120.87
2019-02-25T05:17:01.783Z,100128.97
2019-02-25T05:19:33.666Z,100126.32
2019-02-25T05:22:08.373Z,100119.92
2019-02-25T05:24:40.182Z,100128.13
2019-02-25T05:27:13.082Z,100126.87
2019-02-25T05:29:44.905Z,100119.63
2019-02-25T05:32:20.172Z,100120.89
2019-02-25T05:34:52.007Z,100122.61
2019-02-25T05:37:26.149Z,100125.20
2019-02-25T05:39:57.965Z,100126.92
2019-02-25T05:42:29.823Z,100127.78
2019-02-25T05:45:01.655Z,100123.51
2019-02-25T05:47:33.480Z,100126.97
2019-02-25T05:50:06.667Z,100130.41
2019-02-25T05:52:41.681Z,100131.72
2019-02-25T05:55:19.198Z,100132.59
2019-02-25T05:57:50.916Z,100132.13
2019-02-25T06:00:24.952Z,100132.55
2019-02-25T06:03:00.938Z,100126.97
2019-02-25T06:05:35.525Z,100131.71
2019-02-25T06:08:10.943Z,100124.39
2019-02-25T06:10:44.184Z,100131.66
2019-02-25T06:13:18.047Z,100130.37
2019-02-25T06:15:51.381Z,100132.47
2019-02-25T06:18:26.486Z,100128.60
2019-02-25T06:21:01.567Z,100134.19
2019-02-25T06:23:39.170Z,100137.62
2019-02-25T06:26:10.981Z,100143.61
2019-02-25T06:28:45.562Z,100146.16
2019-02-25T06:31:17.381Z,100146.16
2019-02-25T06:33:53.179Z,100146.16
2019-02-25T06:36:24.985Z,100151.75
2019-02-25T06:38:57.968Z,100148.22
2019-02-25T06:41:29.880Z,100143.33
2019-02-25T06:44:02.875Z,100138.41
2019-02-25T06:46:37.610Z,100133.50
2019-02-25T06:49:15.600Z,100139.30
2019-02-25T06:51:48.930Z,100146.33
2019-02-25T06:54:24.034Z,100148.25
2019-02-25T06:56:55.604Z,100145.52
2019-02-25T06:59:27.139Z,100150.42
2019-02-25T07:02:04.494Z,100148.08
2019-02-25T07:04:58.295Z,100144.34
2019-02-25T07:07:47.622Z,100141.89
2019-02-25T07:10:42.121Z,100144.51
2019-02-25T07:13:19.859Z,100146.73
2019-02-25T07:16:04.836Z,100142.47
2019-02-25T07:19:05.245Z,100138.24
2019-02-25T07:22:05.919Z,100137.52
2019-02-25T07:24:58.210Z,100145.12
2019-02-25T07:27:57.758Z,100143.03
2019-02-25T07:30:42.764Z,100140.16
2019-02-25T07:33:36.714Z,100142.39
2019-02-25T07:36:26.838Z,100144.95
2019-02-25T07:39:30.985Z,100142.22
2019-02-25T07:42:15.228Z,100138.52
2019-02-25T07:44:55.702Z,100143.13
2019-02-25T07:47:43.921Z,100137.99
2019-02-25T07:50:47.476Z,100145.97
2019-02-25T07:53:39.802Z,100149.14
2019-02-25T07:56:27.975Z,100151.97
2019-02-25T07:59:08.028Z,100154.77
2019-02-25T08:02:04.293Z,100153.31
2019-02-25T08:04:56.273Z,100160.41
2019-02-25T08:07:49.882Z,100150.53
2019-02-25T08:10:33.573Z,100156.80
2019-02-25T08:13:31.025Z,100149.25
2019-02-25T08:16:19.426Z,100145.77
2019-02-25T08:19:15.682Z,100143.62
2019-02-25T08:22:08.996Z,100136.28
2019-02-25T08:25:07.995Z,100137.31
2019-02-25T08:28:17.800Z,100142.66
2019-02-25T08:31:23.723Z,100147.62
2019-02-25T08:34:18.413Z,100149.56
2019-02-25T08:37:40.913Z,100151.30
2019-02-25T08:40:43.732Z,100147.69
2019-02-25T08:43:32.606Z,100153.34
2019-02-25T08:46:15.901Z,100156.20
2019-02-25T08:48:55.490Z,100161.98
2019-02-25T08:51:27.072Z,100155.23
2019-02-25T08:54:00.172Z,100156.34
2019-02-25T08:56:42.346Z,100157.92
2019-02-25T08:59:12.279Z,100151.02
2019-02-25T09:01:43.907Z,100152.37
2019-02-25T09:04:18.630Z,100148.39
2019-02-25T09:06:52.357Z,100154.16
2019-02-25T09:09:23.850Z,100155.02
2019-02-25T09:11:55.454Z,100162.03
2019-02-25T09:14:33.411Z,100160.69
2019-02-25T09:17:10.990Z,100164.79
2019-02-25T09:19:42.505Z,100160.11
2019-02-25T09:22:14.118Z,100156.78
2019-02-25T09:24:54.404Z,100164.69
2019-02-25T09:27:29.447Z,100158.11
2019-02-25T09:30:02.682Z,100172.78
2019-02-25T09:32:34.351Z,100174.16
2019-02-25T09:35:06.264Z,100175.52
2019-02-25T09:37:37.910Z,100173.89
2019-02-25T09:40:12.591Z,100172.72
2019-02-25T09:42:44.174Z,100179.11
2019-02-25T09:45:19.518Z,100179.37
2019-02-25T09:47:54.128Z,100175.63
2019-02-25T09:50:28.485Z,100173.05
2019-02-25T09:53:00.047Z,100168.73
2019-02-25T09:55:31.623Z,100169.28
2019-02-25T09:58:07.973Z,100170.72
2019-02-25T10:00:41.157Z,100168.74
2019-02-25T10:03:15.514Z,100166.58
2019-02-25T10:05:48.318Z,100168.71
2019-02-25T10:08:19.887Z,100171.14
2019-02-25T10:10:51.591Z,100156.61
2019-02-25T10:13:25.248Z,100163.77
2019-02-25T10:15:58.607Z,100156.55
2019-02-25T10:18:31.668Z,100153.94
2019-02-25T10:21:04.928Z,100151.09
2019-02-25T10:23:40.542Z,100159.02
2019-02-25T10:26:12.195Z,100163.95
2019-02-25T10:28:43.788Z,100158.64
2019-02-25T10:31:17.334Z,100156.17
2019-02-25T10:33:48.598Z,100159.64
2019-02-25T10:36:22.253Z,100149.59
2019-02-25T10:38:53.853Z,100160.52
2019-02-25T10:41:34.028Z,100157.89
2019-02-25T10:44:08.500Z,100150.56
2019-02-25T10:46:47.342Z,100156.34
2019-02-25T10:49:19.971Z,100156.84
2019-02-25T10:51:53.115Z,100157.65
2019-02-25T10:54:25.459Z,100160.27
2019-02-25T10:57:05.442Z,100152.87
2019-02-25T10:59:39.060Z,100145.61
2019-02-25T11:02:13.695Z,100149.61
2019-02-25T11:04:47.459Z,100144.88
2019-02-25T11:07:21.010Z,100141.72
2019-02-25T11:10:02.705Z,100143.66
2019-02-25T11:12:34.563Z,100134.11
2019-02-25T11:15:11.722Z,100130.59
2019-02-25T11:17:45.473Z,100129.94
2019-02-25T11:20:17.434Z,100124.12
2019-02-25T11:22:49.058Z,100123.92
2019-02-25T11:25:25.743Z,100120.16
2019-02-25T11:27:57.031Z,100125.60
2019-02-25T11:30:31.537Z,100121.61
2019-02-25T11:33:04.169Z,100118.28
2019-02-25T11:35:39.372Z,100118.16
2019-02-25T11:38:09.154Z,100123.73
2019-02-25T11:40:43.773Z,100119.25
2019-02-25T11:43:18.635Z,100117.59
2019-02-25T11:45:55.180Z,100115.27
2019-02-25T11:48:27.092Z,100110.61
2019-02-25T11:50:59.763Z,100102.41
2019-02-25T11:53:31.345Z,100110.12
2019-02-25T11:56:02.966Z,100097.98
2019-02-25T11:58:34.545Z,100101.19
2019-02-25T12:01:11.112Z,100107.23
2019-02-25T12:03:42.775Z,100101.66
2019-02-25T12:06:16.852Z,100102.05
2019-02-25T12:08:52.811Z,100098.64
2019-02-25T12:11:24.400Z,100091.73
2019-02-25T12:13:58.849Z,100085.56
2019-02-25T12:16:30.431Z,100081.45
2019-02-25T12:19:05.700Z,100073.27
2019-02-25T12:21:42.359Z,100063.49
2019-02-25T12:24:15.350Z,100059.64
2019-02-25T12:26:48.689Z,100063.49
2019-02-25T12:29:20.431Z,100063.59
2019-02-25T12:31:52.001Z,100058.31
2019-02-25T12:34:23.619Z,100052.58
2019-02-25T12:36:55.225Z,100055.42
2019-02-25T12:39:28.622Z,100049.00
2019-02-25T12:42:00.209Z,100052.31
2019-02-25T12:44:35.046Z,100044.69
2019-02-25T12:47:06.664Z,100043.47
2019-02-25T12:49:38.260Z,100041.41
2019-02-25T12:52:11.894Z,100034.80
2019-02-25T12:54:43.528Z,100025.67
2019-02-25T12:57:20.761Z,100037.07
2019-02-25T12:59:52.302Z,100036.39
2019-02-25T13:02:23.943Z,100029.16
2019-02-25T13:04:55.574Z,100031.89
2019-02-25T13:07:29.428Z,100032.61
2019-02-25T13:10:06.731Z,100023.29
2019-02-25T13:12:38.304Z,100019.63
2019-02-25T13:15:13.732Z,100011.81
2019-02-25T13:17:46.561Z,100008.92
2019-02-25T13:20:23.709Z,100008.34
2019-02-25T13:22:55.287Z,100011.55
2019-02-25T13:25:29.325Z,99997.80
2019-02-25T13:28:04.246Z,100010.30
2019-02-25T13:30:40.984Z,100004.45
2019-02-25T13:33:12.585Z,99998.89
2019-02-25T13:35:44.240Z,99998.15
2019-02-25T13:38:20.849Z,99989.91
2019-02-25T13:40:52.410Z,99983.91
2019-02-25T13:43:24.122Z,99983.17
2019-02-25T13:45:56.028Z,99982.48
2019-02-25T13:48:27.782Z,99980.68
2019-02-25T13:50:59.499Z,99980.67
2019-02-25T13:53:31.294Z,99979.25
2019-02-25T13:56:03.114Z,99980.92
2019-02-25T13:58:34.779Z,99979.73
2019-02-25T14:01:07.058Z,99977.17
2019-02-25T14:03:46.137Z,99970.13
2019-02-25T14:06:17.798Z,99967.73
2019-02-25T14:08:49.487Z,99967.73
2019-02-25T14:11:23.988Z,99963.69
2019-02-25T14:13:59.726Z,99969.17
2019-02-25T14:16:32.582Z,99966.34
2019-02-25T14:19:06.833Z,99959.62
2019-02-25T14:21:40.614Z,99955.72
2019-02-25T14:24:12.302Z,99951.74
2019-02-25T14:26:43.974Z,99949.38
2019-02-25T14:29:18.568Z,99944.11
2019-02-25T14:31:51.047Z,99935.60
2019-02-25T14:34:22.886Z,99929.73
2019-02-25T14:36:55.453Z,99930.23
2019-02-25T14:39:33.024Z,99927.72
2019-02-25T14:42:12.160Z,99925.94
2019-02-25T14:44:45.994Z,99916.91
2019-02-25T14:47:27.701Z,99918.05
2019-02-25T14:49:55.427Z,99917.31
2019-02-25T14:52:29.149Z,99911.94
2019-02-25T14:55:04.099Z,99911.66
2019-02-25T14:57:38.203Z,99909.20
2019-02-25T15:00:16.094Z,99907.39
2019-02-25T15:02:48.216Z,99906.17
2019-02-25T15:05:21.498Z,99901.00
2019-02-25T15:07:53.467Z,99905.06
2019-02-25T15:10:31.202Z,99904.86
2019-02-25T15:13:04.011Z,99909.02
2019-02-25T15:15:37.090Z,99897.07
2019-02-25T15:18:12.895Z,99902.20
2019-02-25T15:20:48.931Z,99896.26
2019-02-25T15:23:25.281Z,99893.72
2019-02-25T15:26:05.034Z,99887.52
2019-02-25T15:28:29.763Z,99895.11
2019-02-25T15:31:06.588Z,99884.20
2019-02-25T15:33:40.335Z,99883.44
2019-02-25T15:36:20.554Z,99883.24
2019-02-25T15:38:52.082Z,99886.09
2019-02-25T15:41:23.691Z,99885.41
2019-02-25T15:43:57.980Z,99873.44
2019-02-25T15:46:28.914Z,99877.67
2019-02-25T15:49:00.512Z,99886.21
2019-02-25T15:51:35.113Z,99886.59
2019-02-25T15:54:06.569Z,99874.62
2019-02-25T15:56:38.152Z,99875.03
2019-02-25T15:59:10.761Z,99879.30
2019-02-25T16:01:42.329Z,99887.80
2019-02-25T16:04:27.833Z,99885.25
2019-02-25T16:07:00.006Z,99878.27
2019-02-25T16:09:33.997Z,99883.70
2019-02-25T16:12:07.421Z,99881.48
2019-02-25T16:14:41.872Z,99886.02
2019-02-25T16:17:13.119Z,99882.55
2019-02-25T16:19:47.549Z,99879.09
2019-02-25T16:22:19.162Z,99880.90
2019-02-25T16:24:53.584Z,99879.87
2019-02-25T16:27:26.910Z,99877.63
2019-02-25T16:30:00.256Z,99881.98
2019-02-25T16:32:33.385Z,99887.64
2019-02-25T16:35:07.182Z,99885.00
2019-02-25T16:37:42.742Z,99884.94
2019-02-25T16:40:14.776Z,99886.36
2019-02-25T16:42:46.663Z,99888.15
2019-02-25T16:45:19.682Z,99891.89
2019-02-25T16:47:51.889Z,99890.56
2019-02-25T16:50:23.615Z,99892.00
2019-02-25T16:52:55.411Z,99897.44
2019-02-25T16:55:27.862Z,99892.55
2019-02-25T16:58:03.481Z,99898.00
2019-02-25T17:00:37.078Z,99894.79
2019-02-25T17:03:11.142Z,99901.52
2019-02-25T17:05:45.625Z,99909.20
2019-02-25T17:08:19.877Z,99912.64
2019-02-25T17:10:53.454Z,99911.02
2019-02-25T17:13:24.732Z,99910.50
2019-02-25T17:15:56.574Z,99910.63
2019-02-25T17:18:30.920Z,99910.23
2019-02-25T17:21:01.435Z,99919.38
2019-02-25T17:23:34.512Z,99919.63
2019-02-25T17:26:07.802Z,99914.31
2019-02-25T17:28:41.594Z,99921.45
2019-02-25T17:31:16.388Z,99920.64
2019-02-25T17:33:53.633Z,99926.42
2019-02-25T17:36:25.359Z,99928.06
2019-02-25T17:38:57.314Z,99921.16
2019-02-25T17:41:28.963Z,99927.86
2019-02-25T17:44:01.419Z,99924.50
2019-02-25T17:46:41.355Z,99924.03
2019-02-25T17:49:20.722Z,99929.38
2019-02-25T17:51:49.587Z,99934.95
2019-02-25T17:54:24.573Z,99941.82
2019-02-25T17:56:57.230Z,99952.31
2019-02-25T17:59:31.588Z,99942.38
2019-02-25T18:02:08.853Z,99944.37
2019-02-25T18:04:41.578Z,99946.91
2019-02-25T18:07:13.261Z,99949.48
2019-02-25T18:09:47.211Z,99946.23
2019-02-25T18:12:19.126Z,99954.73
2019-02-25T18:14:50.838Z,99954.17
2019-02-25T18:17:23.728Z,99949.32
2019-02-25T18:19:56.797Z,99950.81
2019-02-25T18:22:34.628Z,99946.48
2019-02-25T18:25:08.132Z,99951.05
2019-02-25T18:27:41.436Z,99944.17
2019-02-25T18:30:16.638Z,99948.09
2019-02-25T18:32:52.632Z,99951.27
2019-02-25T18:35:24.769Z,99945.34
2019-02-25T18:37:58.103Z,99941.62
2019-02-25T18:40:30.136Z,99947.70
2019-02-25T18:43:02.562Z,99948.39
2019-02-25T18:45:36.144Z,99946.63
2019-02-25T18:48:09.206Z,99939.23
2019-02-25T18:50:40.814Z,99937.83
2019-02-25T18:53:12.494Z,99937.66
2019-02-25T18:55:45.908Z,99948.28
2019-02-25T18:58:21.884Z,99946.72
2019-02-25T19:00:53.853Z,99938.75
2019-02-25T19:03:26.964Z,99937.45
2019-02-25T19:05:59.595Z,99940.83
2019-02-25T19:08:33.778Z,99948.19
2019-02-25T19:11:12.939Z,99953.30
2019-02-25T19:13:48.236Z,99950.75
2019-02-25T19:16:24.337Z,99954.98
2019-02-25T19:19:04.016Z,99956.70
2019-02-25T19:21:35.800Z,99961.86
2019-02-25T19:24:08.135Z,99960.55
2019-02-25T19:26:43.013Z,99959.91
2019-02-25T19:29:17.819Z,99959.63
2019-02-25T19:31:50.087Z,99955.20
2019-02-25T19:34:21.730Z,99949.45
2019-02-25T19:36:57.996Z,99951.92
2019-02-25T19:39:26.931Z,99959.98
2019-02-25T19:42:00.567Z,99963.97
2019-02-25T19:44:34.178Z,99966.31
2019-02-25T19:47:07.481Z,99964.13
2019-02-25T19:49:40.827Z,99967.92
2019-02-25T19:52:14.322Z,99972.98
2019-02-25T19:54:48.190Z,99972.33
2019-02-25T19:57:21.642Z,99969.31
2019-02-25T19:59:53.539Z,99972.88
2019-02-25T20:02:29.780Z,99969.19
2019-02-25T20:05:01.874Z,99962.37
2019-02-25T20:07:35.761Z,99962.90
2019-02-25T20:10:07.790Z,99962.67
2019-02-25T20:12:39.594Z,99955.48
2019-02-25T20:15:16.370Z,99952.94
2019-02-25T20:17:50.157Z,99954.85
2019-02-25T20:20:22.361Z,99957.70
2019-02-25T20:22:53.961Z,99966.95
2019-02-25T20:25:26.924Z,99969.12
2019-02-25T20:28:00.460Z,99967.15
2019-02-25T20:30:32.536Z,99971.81
2019-02-25T20:33:06.977Z,99973.28
2019-02-25T20:35:38.984Z,99962.67
2019-02-25T20:38:10.603Z,99961.19
2019-02-25T20:40:42.248Z,99958.38
2019-02-25T20:43:17.247Z,99960.36
2019-02-25T20:45:52.138Z,99962.85
2019-02-25T20:48:21.991Z,99966.52
2019-02-25T20:50:53.952Z,99967.88
2019-02-25T20:53:27.366Z,99960.73
2019-02-25T20:55:59.099Z,99959.64
2019-02-25T20:58:30.756Z,99958.61
2019-02-25T21:01:05.232Z,99969.13
2019-02-25T21:03:36.054Z,99964.59
2019-02-25T21:06:09.708Z,99959.59
2019-02-25T21:08:42.423Z,99962.36
2019-02-25T21:11:15.638Z,99961.36
2019-02-25T21:13:47.335Z,99955.06
2019-02-25T21:16:18.939Z,99962.70
2019-02-25T21:18:51.385Z,99961.44
2019-02-25T21:21:24.034Z,99956.72
2019-02-25T21:23:55.634Z,99954.31
2019-02-25T21:26:29.264Z,99959.39
2019-02-25T21:29:02.381Z,99956.37
2019-02-25T21:31:33.853Z,99961.59
2019-02-25T21:34:05.746Z,99952.91
2019-02-25T21:36:38.223Z,99955.61
2019-02-25T21:39:14.330Z,99953.93
2019-02-25T21:41:45.903Z,99954.50
2019-02-25T21:44:19.517Z,99953.86
2019-02-25T21:46:53.804Z,99954.79
2019-02-25T21:49:27.033Z,99956.79
2019-02-25T21:51:57.748Z,99952.28
2019-02-25T21:54:29.364Z,99955.77
2019-02-25T21:57:01.556Z,99956.05
2019-02-25T21:59:34.957Z,99949.26
2019-02-25T22:02:07.580Z,99951.03
2019-02-25T22:04:42.397Z,99943.23
2019-02-25T22:07:17.102Z,99949.77
2019-02-25T22:09:46.668Z,99950.09
2019-02-25T22:12:18.243Z,99952.31
2019-02-25T22:14:51.714Z,99949.72
2019-02-25T22:17:24.662Z,99957.19
2019-02-25T22:19:56.485Z,99955.09
2019-02-25T22:22:28.862Z,99947.47
2019-02-25T22:25:05.928Z,99942.77
2019-02-25T22:27:36.848Z,99944.59
2019-02-25T22:30:10.803Z,99943.44
2019-02-25T22:32:43.146Z,99948.76
2019-02-25T22:35:15.299Z,99941.05
2019-02-25T22:37:49.625Z,99941.51
2019-02-25T22:40:20.272Z,99949.98
2019-02-25T22:42:52.768Z,99945.75
2019-02-25T22:45:25.124Z,99945.92
2019-02-25T22:47:56.683Z,99951.32
2019-02-25T22:50:29.133Z,99944.03
2019-02-25T22:53:03.648Z,99956.13
2019-02-25T22:55:39.264Z,99948.63
2019-02-25T22:58:08.877Z,99950.31
2019-02-25T23:00:49.103Z,99945.28
2019-02-25T23:03:23.230Z,99952.73
2019-02-25T23:05:55.276Z,99947.20
2019-02-25T23:08:26.906Z,99947.70
2019-02-25T23:10:58.494Z,99951.17
2019-02-25T23:13:31.957Z,99947.70
2019-02-25T23:16:03.496Z,99945.95
2019-02-25T23:18:35.010Z,99950.91
2019-02-25T23:21:06.580Z,99948.02
2019-02-25T23:23:40.046Z,99948.86
2019-02-25T23:26:12.622Z,99947.17
2019-02-25T23:28:44.754Z,99957.17
2019-02-25T23:31:16.343Z,99957.09
2019-02-25T23:33:48.967Z,99965.38
2019-02-25T23:36:21.799Z,99966.75
2019-02-25T23:38:55.355Z,99960.31
2019-02-25T23:41:32.020Z,99965.92
2019-02-25T23:44:00.996Z,99952.56
2019-02-25T23:46:34.485Z,99961.15
2019-02-25T23:49:05.819Z,99955.70
2019-02-25T23:51:39.367Z,99957.14
2019-02-25T23:54:12.203Z,99950.47
2019-02-25T23:56:47.679Z,99955.23
2019-02-25T23:59:19.314Z,99951.34
